createdAt,value
2023-02-24T00:00:32.104Z,8.10
2023-02-24T00:02:59.354Z,10.75
2023-02-24T00:05:26.431Z,8.02
2023-02-24T00:07:53.518Z,10.25
2023-02-24T00:10:21.500Z,9.35
2023-02-24T00:12:49.309Z,8.30
2023-02-24T00:15:16.424Z,11.73
2023-02-24T00:20:33.568Z,9.95
2023-02-24T00:23:00.705Z,8.45
2023-02-24T00:25:27.825Z,8.65
2023-02-24T00:28:01.613Z,11.27
2023-02-24T00:30:31.425Z,8.00
2023-02-24T00:33:01.400Z,8.32
2023-02-24T00:35:29.332Z,9.77
2023-02-24T00:37:56.462Z,7.82
2023-02-24T00:40:24.090Z,13.18
2023-02-24T00:42:51.857Z,10.23
2023-02-24T00:45:18.945Z,14.10
2023-02-24T00:47:46.036Z,7.57
2023-02-24T00:50:14.205Z,10.45
2023-02-24T00:55:36.274Z,10.23
2023-02-24T00:58:04.158Z,11.15
2023-02-24T01:00:35.872Z,7.75
2023-02-24T01:03:03.027Z,8.40
2023-02-24T01:05:30.139Z,7.85
2023-02-24T01:07:57.206Z,7.75
2023-02-24T01:10:26.966Z,8.75
2023-02-24T01:12:54.210Z,9.07
2023-02-24T01:15:21.331Z,9.95
2023-02-24T01:20:38.437Z,7.68
2023-02-24T01:23:05.504Z,9.82
2023-02-24T01:25:32.581Z,9.77
2023-02-24T01:27:59.742Z,7.20
2023-02-24T01:30:26.846Z,9.02
2023-02-24T01:32:54.090Z,7.47
2023-02-24T01:35:21.324Z,8.88
2023-02-24T01:40:35.423Z,7.50
2023-02-24T01:43:02.523Z,7.13
2023-02-24T01:45:29.879Z,7.25
2023-02-24T01:47:56.969Z,6.85
2023-02-24T01:50:25.997Z,7.28
2023-02-24T01:52:56.114Z,10.05
2023-02-24T01:55:24.585Z,9.07
2023-02-24T02:00:39.446Z,6.47
2023-02-24T02:03:08.137Z,6.53
2023-02-24T02:05:35.345Z,11.10
2023-02-24T02:08:02.670Z,6.28
2023-02-24T02:13:21.064Z,7.30
2023-02-24T02:15:48.454Z,7.80
2023-02-24T02:18:15.546Z,9.82
2023-02-24T02:23:29.873Z,6.38
2023-02-24T02:25:56.936Z,7.38
2023-02-24T02:28:24.014Z,8.88
2023-02-24T02:33:39.479Z,5.93
2023-02-24T02:38:54.164Z,8.68
2023-02-24T02:41:22.450Z,7.43
2023-02-24T02:46:36.778Z,9.05
2023-02-24T02:49:03.914Z,7.57
2023-02-24T02:51:30.970Z,7.13
2023-02-24T02:53:59.287Z,6.15
2023-02-24T02:56:26.404Z,7.63
2023-02-24T02:58:53.470Z,7.95
2023-02-24T03:01:21.103Z,7.75
2023-02-24T03:03:50.098Z,7.03
2023-02-24T03:06:17.240Z,6.75
2023-02-24T03:08:44.302Z,7.97
2023-02-24T03:11:11.368Z,6.30
2023-02-24T03:13:38.445Z,5.30
2023-02-24T03:16:06.519Z,7.35
2023-02-24T03:18:33.637Z,6.13
2023-02-24T03:21:01.534Z,7.05
2023-02-24T03:26:21.724Z,5.53
2023-02-24T03:31:36.847Z,5.40
2023-02-24T03:34:04.099Z,7.57
2023-02-24T03:36:31.183Z,6.45
2023-02-24T03:38:58.649Z,5.28
2023-02-24T03:41:25.830Z,5.50
2023-02-24T03:43:52.905Z,8.82
2023-02-24T03:46:20.077Z,6.18
2023-02-24T03:48:47.999Z,6.15
2023-02-24T03:51:15.994Z,6.18
2023-02-24T03:56:30.048Z,6.03
2023-02-24T03:58:57.114Z,6.28
2023-02-24T04:01:25.479Z,6.22
2023-02-24T04:06:41.786Z,5.72
2023-02-24T04:09:09.509Z,5.65
2023-02-24T04:11:37.503Z,6.50
2023-02-24T04:14:06.526Z,7.22
2023-02-24T04:16:36.704Z,6.22
2023-02-24T04:19:03.984Z,7.03
2023-02-24T04:21:31.342Z,5.35
2023-02-24T04:23:58.931Z,6.85
2023-02-24T04:29:17.519Z,5.93
2023-02-24T04:34:32.726Z,6.07
2023-02-24T04:37:02.259Z,6.72
2023-02-24T04:39:29.430Z,4.85
2023-02-24T04:41:57.735Z,5.30
2023-02-24T04:44:25.286Z,5.88
2023-02-24T04:49:41.140Z,4.93
2023-02-24T04:52:09.271Z,5.00
2023-02-24T04:54:36.414Z,5.25
2023-02-24T04:57:04.168Z,5.07
2023-02-24T04:59:31.226Z,6.20
2023-02-24T05:02:01.519Z,5.35
2023-02-24T05:07:17.038Z,6.65
2023-02-24T05:09:44.142Z,6.85
2023-02-24T05:12:11.223Z,5.45
2023-02-24T05:14:39.652Z,6.13
2023-02-24T05:17:06.880Z,5.07
2023-02-24T05:22:40.222Z,8.30
2023-02-24T05:27:56.738Z,6.05
2023-02-24T05:30:24.303Z,5.43
2023-02-24T05:32:54.198Z,6.07
2023-02-24T05:35:21.283Z,5.38
2023-02-24T05:40:15.358Z,5.00
2023-02-24T05:45:32.807Z,5.68
2023-02-24T05:48:00.393Z,6.82
2023-02-24T05:50:27.541Z,5.43
2023-02-24T05:52:55.991Z,4.40
2023-02-24T05:55:23.616Z,6.05
2023-02-24T05:57:50.904Z,6.13
2023-02-24T06:03:08.558Z,4.25
2023-02-24T06:05:39.856Z,5.70
2023-02-24T06:08:11.814Z,4.80
2023-02-24T06:10:40.421Z,5.50
2023-02-24T06:13:07.721Z,5.10
2023-02-24T06:15:35.122Z,5.30
2023-02-24T06:18:03.851Z,4.90
2023-02-24T06:20:34.572Z,6.13
2023-02-24T06:23:02.988Z,5.50
2023-02-24T06:25:33.460Z,5.82
2023-02-24T06:28:01.972Z,5.07
2023-02-24T06:32:59.716Z,5.15
2023-02-24T06:35:27.590Z,4.40
2023-02-24T06:37:56.122Z,5.30
2023-02-24T06:40:23.532Z,5.90
2023-02-24T06:42:50.960Z,4.88
2023-02-24T06:45:18.393Z,5.60
2023-02-24T06:50:16.176Z,5.35
2023-02-24T06:52:43.467Z,5.53
2023-02-24T06:55:25.506Z,5.57
2023-02-24T06:57:57.222Z,5.05
2023-02-24T07:00:27.889Z,5.22
2023-02-24T07:02:56.882Z,4.93
2023-02-24T07:05:24.383Z,5.05
2023-02-24T07:10:19.726Z,5.47
2023-02-24T07:12:51.470Z,6.10
2023-02-24T07:15:18.802Z,7.05
2023-02-24T07:17:48.270Z,6.03
2023-02-24T07:20:25.537Z,6.40
2023-02-24T07:23:02.416Z,4.80
2023-02-24T07:25:35.225Z,5.13
2023-02-24T07:28:05.729Z,5.00
2023-02-24T07:30:38.227Z,6.38
2023-02-24T07:33:05.952Z,4.70
2023-02-24T07:35:35.356Z,5.07
2023-02-24T07:38:05.278Z,5.10
2023-02-24T07:40:33.500Z,4.63
2023-02-24T07:43:01.098Z,4.85
2023-02-24T07:45:29.939Z,5.65
2023-02-24T07:47:57.784Z,6.53
2023-02-24T07:50:28.339Z,5.43
2023-02-24T07:52:59.446Z,5.28
2023-02-24T07:55:31.404Z,5.32
2023-02-24T07:57:58.651Z,5.20
2023-02-24T08:00:28.474Z,5.10
2023-02-24T08:02:56.003Z,8.30
2023-02-24T08:05:24.707Z,4.50
2023-02-24T08:10:25.595Z,4.38
2023-02-24T08:12:56.063Z,4.60
2023-02-24T08:15:26.589Z,4.95
2023-02-24T08:17:53.877Z,7.60
2023-02-24T08:20:21.162Z,5.28
2023-02-24T08:25:19.900Z,4.82
2023-02-24T08:28:07.797Z,4.97
2023-02-24T08:30:39.155Z,5.30
2023-02-24T08:33:11.606Z,5.47
2023-02-24T08:35:38.972Z,4.88
2023-02-24T08:38:09.652Z,5.10
2023-02-24T08:40:40.186Z,5.45
2023-02-24T08:43:19.900Z,6.00
2023-02-24T08:45:47.261Z,6.78
2023-02-24T08:48:32.481Z,5.30
2023-02-24T08:50:59.924Z,6.35
2023-02-24T08:53:31.676Z,4.75
2023-02-24T08:56:01.639Z,4.55
2023-02-24T08:58:28.901Z,5.25
2023-02-24T09:00:58.733Z,6.22
2023-02-24T09:03:29.136Z,5.47
2023-02-24T09:06:01.033Z,5.40
2023-02-24T09:08:32.837Z,5.40
2023-02-24T09:11:08.126Z,6.25
2023-02-24T09:16:06.485Z,6.25
2023-02-24T09:18:38.533Z,5.82
2023-02-24T09:21:24.913Z,5.72
2023-02-24T09:23:54.855Z,6.25
2023-02-24T09:26:24.434Z,5.97
2023-02-24T09:28:58.090Z,6.95
2023-02-24T09:31:40.935Z,10.18
2023-02-24T09:37:01.618Z,6.70
2023-02-24T09:39:54.744Z,6.03
2023-02-24T09:42:22.178Z,4.57
2023-02-24T09:47:39.056Z,5.63
2023-02-24T09:50:14.458Z,6.35
2023-02-24T09:52:43.158Z,5.03
2023-02-24T09:55:19.129Z,6.82
2023-02-24T09:58:06.479Z,5.28
2023-02-24T10:00:45.267Z,4.85
2023-02-24T10:03:42.273Z,6.45
2023-02-24T10:06:21.135Z,4.82
2023-02-24T10:08:56.810Z,4.65
2023-02-24T10:11:38.467Z,4.97
2023-02-24T10:16:41.793Z,5.43
2023-02-24T10:19:21.667Z,5.28
2023-02-24T10:24:30.186Z,4.78
2023-02-24T10:27:08.836Z,7.20
2023-02-24T10:29:42.315Z,4.13
2023-02-24T10:37:32.692Z,6.53
2023-02-24T10:40:05.380Z,6.32
2023-02-24T10:42:43.176Z,3.83
2023-02-24T10:45:17.474Z,4.40
2023-02-24T10:47:47.604Z,5.18
2023-02-24T10:55:48.688Z,5.22
2023-02-24T10:58:30.969Z,4.20
2023-02-24T11:03:45.435Z,3.97
2023-02-24T11:06:32.863Z,5.38
2023-02-24T11:09:19.621Z,4.78
2023-02-24T11:12:08.018Z,4.50
2023-02-24T11:14:57.193Z,4.10
2023-02-24T11:17:29.955Z,6.05
2023-02-24T11:19:57.635Z,4.28
2023-02-24T11:22:27.646Z,4.47
2023-02-24T11:25:05.798Z,4.45
2023-02-24T11:27:41.798Z,5.30
2023-02-24T11:30:15.109Z,4.65
2023-02-24T11:32:42.790Z,4.32
2023-02-24T11:35:13.060Z,5.05
2023-02-24T11:38:12.931Z,4.45
2023-02-24T11:40:48.487Z,3.72
2023-02-24T11:43:19.977Z,5.85
2023-02-24T11:45:47.490Z,4.47
2023-02-24T11:48:19.627Z,5.03
2023-02-24T11:50:49.229Z,4.18
2023-02-24T11:53:19.666Z,5.20
2023-02-24T11:55:47.153Z,5.10
2023-02-24T12:00:46.923Z,3.95
2023-02-24T12:05:43.031Z,4.05
2023-02-24T12:08:19.522Z,4.50
2023-02-24T12:11:00.375Z,3.72
2023-02-24T12:13:27.912Z,5.38
2023-02-24T12:16:00.669Z,4.22
2023-02-24T12:18:30.930Z,4.53
2023-02-24T12:20:58.426Z,3.80
2023-02-24T12:23:27.758Z,4.43
2023-02-24T12:25:57.181Z,5.32
2023-02-24T12:28:28.579Z,4.13
2023-02-24T12:30:57.863Z,4.65
2023-02-24T12:33:27.241Z,3.97
2023-02-24T12:35:57.155Z,4.38
2023-02-24T12:38:27.553Z,3.50
2023-02-24T12:40:55.136Z,4.18
2023-02-24T12:43:25.670Z,4.18
2023-02-24T12:45:53.202Z,5.20
2023-02-24T12:48:22.665Z,4.38
2023-02-24T12:50:58.282Z,4.78
2023-02-24T12:53:28.047Z,3.65
2023-02-24T12:55:58.770Z,4.10
2023-02-24T12:58:26.471Z,3.42
2023-02-24T13:00:57.199Z,4.28
2023-02-24T13:03:28.379Z,4.57
2023-02-24T13:06:05.006Z,3.70
2023-02-24T13:08:40.481Z,3.60
2023-02-24T13:11:15.484Z,4.07
2023-02-24T13:13:45.033Z,4.72
2023-02-24T13:16:18.427Z,4.15
2023-02-24T13:18:48.751Z,5.32
2023-02-24T13:21:23.147Z,3.13
2023-02-24T13:23:57.563Z,8.68
2023-02-24T13:29:07.986Z,3.50
2023-02-24T13:31:41.318Z,3.35
2023-02-24T13:34:11.110Z,3.28
2023-02-24T13:36:40.100Z,4.95
2023-02-24T13:39:13.086Z,3.90
2023-02-24T13:41:43.443Z,5.07
2023-02-24T13:44:13.587Z,3.30
2023-02-24T13:46:46.381Z,3.50
2023-02-24T13:51:47.922Z,3.22
2023-02-24T13:54:17.793Z,3.45
2023-02-24T13:56:48.673Z,3.30
2023-02-24T13:59:27.613Z,3.97
2023-02-24T14:01:55.073Z,5.18
2023-02-24T14:04:30.990Z,3.40
2023-02-24T14:06:58.536Z,3.55
2023-02-24T14:09:26.131Z,5.68
2023-02-24T14:12:03.075Z,4.00
2023-02-24T14:14:32.673Z,4.05
2023-02-24T14:17:00.299Z,3.33
2023-02-24T14:19:27.866Z,3.60
2023-02-24T14:22:02.344Z,5.43
2023-02-24T14:24:44.326Z,3.67
2023-02-24T14:27:22.204Z,3.83
2023-02-24T14:29:52.879Z,3.75
2023-02-24T14:34:50.999Z,3.13
2023-02-24T14:37:22.462Z,5.10
2023-02-24T14:39:55.039Z,4.55
2023-02-24T14:42:32.103Z,5.07
2023-02-24T14:45:03.316Z,3.30
2023-02-24T14:47:32.703Z,5.55
2023-02-24T14:50:12.046Z,4.90
2023-02-24T14:52:44.656Z,2.70
2023-02-24T14:55:13.772Z,3.08
2023-02-24T14:57:48.871Z,5.57
2023-02-24T15:00:17.705Z,3.65
2023-02-24T15:02:49.489Z,4.43
2023-02-24T15:05:39.813Z,4.68
2023-02-24T15:08:07.481Z,3.92
2023-02-24T15:10:37.110Z,5.97
2023-02-24T15:13:13.967Z,3.50
2023-02-24T15:15:47.360Z,4.65
2023-02-24T15:20:56.577Z,3.88
2023-02-24T15:23:24.096Z,5.20
2023-02-24T15:25:53.179Z,4.88
2023-02-24T15:28:21.031Z,4.85
2023-02-24T15:30:53.696Z,4.82
2023-02-24T15:33:26.637Z,5.00
2023-02-24T15:35:56.600Z,5.05
2023-02-24T15:38:31.865Z,8.27
2023-02-24T15:41:06.153Z,5.13
2023-02-24T15:43:43.999Z,6.28
2023-02-24T15:46:14.396Z,4.70
2023-02-24T15:48:44.773Z,4.65
2023-02-24T15:53:57.697Z,5.35
2023-02-24T15:56:32.940Z,7.47
2023-02-24T16:01:52.021Z,4.63
2023-02-24T16:09:24.107Z,9.07
2023-02-24T16:11:54.488Z,9.95
2023-02-24T16:14:23.944Z,8.43
2023-02-24T16:16:52.933Z,8.48
2023-02-24T16:19:25.522Z,7.90
2023-02-24T16:21:57.090Z,7.07
2023-02-24T16:24:30.009Z,5.18
2023-02-24T16:29:30.440Z,4.47
2023-02-24T16:31:58.316Z,5.78
2023-02-24T16:34:28.096Z,7.13
2023-02-24T16:39:33.849Z,6.95
2023-02-24T16:44:38.094Z,12.82
2023-02-24T16:49:40.948Z,8.70
2023-02-24T16:52:08.510Z,5.88
2023-02-24T16:54:38.219Z,4.78
2023-02-24T16:59:38.708Z,9.88
2023-02-24T17:02:13.596Z,6.15
2023-02-24T17:04:43.462Z,6.72
2023-02-24T17:07:33.845Z,8.82
2023-02-24T17:10:03.807Z,5.80
2023-02-24T17:12:47.237Z,5.85
2023-02-24T17:15:18.527Z,6.35
2023-02-24T17:17:48.262Z,7.82
2023-02-24T17:20:17.890Z,6.18
2023-02-24T17:22:51.292Z,5.45
2023-02-24T17:25:21.096Z,4.55
2023-02-24T17:27:53.086Z,6.57
2023-02-24T17:30:28.391Z,8.98
2023-02-24T17:33:00.504Z,9.07
2023-02-24T17:35:30.239Z,8.73
2023-02-24T17:38:06.320Z,6.35
2023-02-24T17:40:34.137Z,7.07
2023-02-24T17:43:07.183Z,4.65
2023-02-24T17:45:36.498Z,7.32
2023-02-24T17:48:07.360Z,13.02
2023-02-24T17:50:34.791Z,18.15
2023-02-24T17:53:15.611Z,11.93
2023-02-24T17:56:02.249Z,16.02
2023-02-24T17:58:32.603Z,21.23
2023-02-24T18:03:49.840Z,29.40
2023-02-24T18:08:50.702Z,26.83
2023-02-24T18:13:52.898Z,83.63
2023-02-24T18:16:22.958Z,72.05
2023-02-24T18:18:50.491Z,71.60
2023-02-24T18:23:49.976Z,60.00
2023-02-24T18:26:18.585Z,55.58
2023-02-24T18:28:55.795Z,58.28
2023-02-24T18:34:15.580Z,42.63
2023-02-24T18:36:44.941Z,35.30
2023-02-24T18:39:20.617Z,40.70
2023-02-24T18:41:49.969Z,30.02
2023-02-24T18:50:08.374Z,32.38
2023-02-24T18:52:38.381Z,41.38
2023-02-24T18:55:23.308Z,34.72
2023-02-24T19:00:35.558Z,35.55
2023-02-24T19:03:34.925Z,32.35
2023-02-24T19:06:07.116Z,39.40
2023-02-24T19:08:59.846Z,36.72
2023-02-24T19:14:19.759Z,37.42
2023-02-24T19:17:02.314Z,28.50
2023-02-24T19:19:55.280Z,29.17
2023-02-24T19:24:53.355Z,24.48
2023-02-24T19:27:35.772Z,25.05
2023-02-24T19:33:05.034Z,29.23
2023-02-24T19:35:39.621Z,24.80
2023-02-24T19:38:07.407Z,28.60
2023-02-24T19:40:36.937Z,31.45
2023-02-24T19:43:11.740Z,26.63
2023-02-24T19:45:41.911Z,20.90
2023-02-24T19:48:12.709Z,27.75
2023-02-24T19:50:41.180Z,23.15
2023-02-24T19:58:27.972Z,33.72
2023-02-24T20:03:45.070Z,24.42
2023-02-24T20:08:55.136Z,31.70
2023-02-24T20:11:25.259Z,27.17
2023-02-24T20:13:52.770Z,16.80
2023-02-24T20:16:20.505Z,23.20
2023-02-24T20:18:55.480Z,19.42
2023-02-24T20:21:23.586Z,24.65
2023-02-24T20:23:55.524Z,25.88
2023-02-24T20:26:26.051Z,32.97
2023-02-24T20:28:54.002Z,33.25
2023-02-24T20:33:51.422Z,29.23
2023-02-24T20:36:19.429Z,25.63
2023-02-24T20:38:51.309Z,26.80
2023-02-24T20:41:21.378Z,24.05
2023-02-24T20:53:58.474Z,30.85
2023-02-24T20:56:26.198Z,25.70
2023-02-24T20:58:58.468Z,17.30
2023-02-24T21:01:25.972Z,23.08
2023-02-24T21:06:27.447Z,19.00
2023-02-24T21:08:55.299Z,10.48
2023-02-24T21:13:52.961Z,16.20
2023-02-24T21:18:50.826Z,17.90
2023-02-24T21:23:53.646Z,18.15
2023-02-24T21:26:21.859Z,15.60
2023-02-24T21:28:57.186Z,12.65
2023-02-24T21:31:30.503Z,16.00
2023-02-24T21:36:30.727Z,10.93
2023-02-24T21:39:03.741Z,14.30
2023-02-24T21:41:47.705Z,17.23
2023-02-24T21:44:24.265Z,12.48
2023-02-24T21:46:57.032Z,13.73
2023-02-24T21:49:25.606Z,14.00
2023-02-24T21:51:55.451Z,14.52
2023-02-24T21:54:23.406Z,14.63
2023-02-24T21:56:52.431Z,11.38
2023-02-24T21:59:24.962Z,19.00
2023-02-24T22:04:26.139Z,13.43
2023-02-24T22:06:55.117Z,12.52
2023-02-24T22:09:25.830Z,13.45
2023-02-24T22:11:54.329Z,13.43
2023-02-24T22:14:21.830Z,20.00
2023-02-24T22:16:49.363Z,11.43
2023-02-24T22:19:19.241Z,18.00
2023-02-24T22:21:46.825Z,17.55
2023-02-24T22:24:14.326Z,16.02
2023-02-24T22:26:44.030Z,13.20
2023-02-24T22:31:48.364Z,18.25
2023-02-24T22:36:44.325Z,22.30
2023-02-24T22:41:52.939Z,19.08
2023-02-24T22:44:21.411Z,18.20
2023-02-24T22:46:49.161Z,20.25
2023-02-24T22:49:18.947Z,20.08
2023-02-24T22:51:46.581Z,22.08
2023-02-24T22:56:47.710Z,11.40
2023-02-24T22:59:20.689Z,16.48
2023-02-24T23:01:50.692Z,11.95
2023-02-24T23:06:47.975Z,13.10
2023-02-24T23:11:48.613Z,17.15
2023-02-24T23:14:17.883Z,11.73
2023-02-24T23:16:46.683Z,16.98
2023-02-24T23:19:16.311Z,14.80
2023-02-24T23:21:43.807Z,10.52
2023-02-24T23:26:41.974Z,17.10
2023-02-24T23:29:13.221Z,10.63
2023-02-24T23:31:42.829Z,17.58
2023-02-24T23:36:40.160Z,19.20
2023-02-24T23:39:07.573Z,7.75
2023-02-24T23:41:45.680Z,12.88
2023-02-24T23:44:16.597Z,10.20
2023-02-24T23:46:44.188Z,12.43
2023-02-24T23:51:48.008Z,9.27
2023-02-24T23:54:16.027Z,11.10
2023-02-24T23:56:48.439Z,8.50
